Time;durP1;ratioP1;P1;durP2;ratioP2;P2;SDS_P1;SDS_P2;PMS_P1;PMS_P2;Temp;Humidity;BMP_temperature;BMP_pressure;BME280_temperature;BME280_humidity;BME280_pressure;Samples;Min_cycle;Max_cycle;Signal;HPM_P1;HPM_P2
2023/03/11 00:00:32;;;;;;;1.20;1.10;;;4.10;98.00;;;;;;5053410;28;20826;-67
2023/03/11 00:03:00;;;;;;;1.30;1.23;;;4.20;98.00;;;;;;5053367;28;20932;-67
2023/03/11 00:05:29;;;;;;;1.83;1.10;;;4.10;98.00;;;;;;5052744;28;20455;-67
2023/03/11 00:07:57;;;;;;;1.20;1.10;;;4.00;98.00;;;;;;5052654;28;20524;-67
2023/03/11 00:10:26;;;;;;;1.53;1.10;;;4.00;98.00;;;;;;5052565;28;20458;-67
2023/03/11 00:12:54;;;;;;;1.97;1.40;;;4.10;98.00;;;;;;5052923;28;20955;-67
2023/03/11 00:15:22;;;;;;;1.73;1.30;;;4.10;98.00;;;;;;5052531;28;21048;-67
2023/03/11 00:17:51;;;;;;;1.70;1.10;;;4.00;98.00;;;;;;5052788;28;20868;-67
2023/03/11 00:20:21;;;;;;;2.00;1.40;;;4.00;98.00;;;;;;5052606;28;20995;-67
2023/03/11 00:22:50;;;;;;;1.10;1.00;;;3.90;98.00;;;;;;5052419;28;20457;-67
2023/03/11 00:25:17;;;;;;;1.17;1.03;;;3.90;98.00;;;;;;5052456;28;20459;-67
2023/03/11 00:27:44;;;;;;;1.20;1.10;;;3.90;98.00;;;;;;5052488;28;20462;-67
2023/03/11 00:30:13;;;;;;;1.20;1.10;;;3.90;98.00;;;;;;5052585;28;20461;-67
2023/03/11 00:32:41;;;;;;;1.40;1.20;;;3.90;98.00;;;;;;5051368;28;21031;-68
2023/03/11 00:35:13;;;;;;;1.10;1.00;;;3.90;98.00;;;;;;5052474;28;20466;-67
2023/03/11 00:37:40;;;;;;;1.80;1.57;;;3.90;98.00;;;;;;5052565;28;20550;-67
2023/03/11 00:40:11;;;;;;;1.10;1.00;;;4.00;98.00;;;;;;5052418;28;20873;-67
2023/03/11 00:42:38;;;;;;;1.20;1.10;;;4.00;98.00;;;;;;5052450;28;20877;-67
2023/03/11 00:45:07;;;;;;;1.10;1.10;;;3.90;98.00;;;;;;5052360;28;20515;-67
2023/03/11 00:47:34;;;;;;;1.20;1.10;;;3.80;98.00;;;;;;5052415;28;20467;-67
2023/03/11 00:50:01;;;;;;;1.10;1.10;;;3.80;98.00;;;;;;5052624;28;20962;-67
2023/03/11 00:52:30;;;;;;;1.10;1.10;;;3.80;98.00;;;;;;5052166;28;20481;-67
2023/03/11 00:54:58;;;;;;;1.63;1.30;;;3.70;98.00;;;;;;5052402;28;20940;-67
2023/03/11 00:57:28;;;;;;;2.07;1.30;;;3.80;98.00;;;;;;5052557;28;20465;-67
2023/03/11 00:59:55;;;;;;;1.20;1.00;;;3.60;98.00;;;;;;5052179;28;20481;-67
2023/03/11 01:02:23;;;;;;;1.40;1.30;;;3.60;98.00;;;;;;5051933;28;20541;-67
2023/03/11 01:04:54;;;;;;;1.90;1.20;;;3.60;98.00;;;;;;5052074;28;20461;-67
2023/03/11 01:07:21;;;;;;;1.57;1.40;;;3.60;98.00;;;;;;5051846;28;20491;-67
2023/03/11 01:09:50;;;;;;;1.10;1.10;;;3.60;98.00;;;;;;5051833;28;20458;-67
2023/03/11 01:12:17;;;;;;;2.80;1.60;;;3.70;98.00;;;;;;5051996;28;20462;-67
2023/03/11 01:14:44;;;;;;;2.30;1.33;;;3.60;98.00;;;;;;5052042;28;20952;-67
2023/03/11 01:17:11;;;;;;;1.40;1.20;;;3.60;98.00;;;;;;5052116;28;20507;-67
2023/03/11 01:19:48;;;;;;;2.23;1.10;;;3.60;98.00;;;;;;5051402;28;20481;-67
2023/03/11 01:22:15;;;;;;;1.20;1.20;;;3.50;98.00;;;;;;5051849;28;20465;-67
2023/03/11 01:24:43;;;;;;;1.30;1.20;;;3.50;98.00;;;;;;5051646;28;20958;-67
2023/03/11 01:27:12;;;;;;;1.47;1.20;;;3.50;98.00;;;;;;5051653;28;20932;-67
2023/03/11 01:29:39;;;;;;;1.20;1.13;;;3.40;98.00;;;;;;5051829;28;20547;-67
2023/03/11 01:32:07;;;;;;;1.37;1.10;;;3.40;98.00;;;;;;5051793;28;20473;-67
2023/03/11 01:34:35;;;;;;;2.23;1.50;;;3.40;98.00;;;;;;5051735;28;20465;-67
2023/03/11 01:37:03;;;;;;;1.10;1.00;;;3.40;98.00;;;;;;5051752;28;20473;-67
2023/03/11 01:39:30;;;;;;;1.30;1.20;;;3.40;98.00;;;;;;5051687;28;20460;-67
2023/03/11 01:41:58;;;;;;;1.50;1.10;;;3.30;98.00;;;;;;5051822;28;20461;-67
2023/03/11 01:44:26;;;;;;;1.33;1.30;;;3.20;98.00;;;;;;5034268;28;20454;-67
2023/03/11 01:47:37;;;;;;;1.53;1.30;;;3.20;98.00;;;;;;5051685;28;20465;-67
2023/03/11 01:50:10;;;;;;;1.20;1.20;;;3.20;98.00;;;;;;5036266;28;20458;-67
2023/03/11 01:52:37;;;;;;;2.23;1.33;;;3.10;98.00;;;;;;5051717;28;20486;-67
2023/03/11 01:55:06;;;;;;;2.07;1.47;;;3.20;98.00;;;;;;5051983;28;20476;-67
2023/03/11 01:57:33;;;;;;;1.27;1.13;;;3.10;98.00;;;;;;5051442;28;20876;-66
2023/03/11 02:00:05;;;;;;;1.20;1.10;;;3.10;98.00;;;;;;5051647;28;20463;-67
2023/03/11 02:02:36;;;;;;;1.10;1.00;;;3.10;98.00;;;;;;5051438;28;20542;-66
2023/03/11 02:05:04;;;;;;;1.40;1.37;;;3.00;98.00;;;;;;5051291;28;20557;-67
2023/03/11 02:07:32;;;;;;;1.73;1.37;;;3.10;98.00;;;;;;5051377;28;20470;-67
2023/03/11 02:09:59;;;;;;;1.80;1.37;;;3.10;98.00;;;;;;5051504;28;20454;-67
2023/03/11 02:12:29;;;;;;;1.50;1.20;;;3.10;98.00;;;;;;5051087;28;20928;-67
2023/03/11 02:14:59;;;;;;;1.47;1.20;;;3.00;98.00;;;;;;5051343;28;20464;-67
2023/03/11 02:17:32;;;;;;;1.40;1.40;;;3.00;98.00;;;;;;5051178;28;20965;-67
2023/03/11 02:20:20;;;;;;;1.70;1.40;;;3.00;98.00;;;;;;5051389;28;20457;-67
2023/03/11 02:22:49;;;;;;;1.33;1.20;;;2.90;98.00;;;;;;5051150;28;20449;-67
2023/03/11 02:25:26;;;;;;;3.27;1.20;;;2.90;98.00;;;;;;5051366;28;20825;-67
2023/03/11 02:27:55;;;;;;;1.10;1.10;;;3.00;98.00;;;;;;5051347;28;20457;-67
2023/03/11 02:30:26;;;;;;;1.90;1.47;;;2.90;98.00;;;;;;5050905;28;20458;-67
2023/03/11 02:32:54;;;;;;;1.50;1.40;;;2.90;98.00;;;;;;5054332;28;20477;-67
2023/03/11 02:35:22;;;;;;;1.10;1.00;;;3.00;98.00;;;;;;5055089;28;20453;-67
2023/03/11 02:37:50;;;;;;;3.27;1.40;;;2.90;98.00;;;;;;5054787;28;20457;-67
2023/03/11 02:40:38;;;;;;;1.10;1.00;;;3.00;98.00;;;;;;5054888;28;20498;-67
2023/03/11 02:43:11;;;;;;;3.53;1.43;;;3.00;98.00;;;;;;5054674;28;20458;-67
2023/03/11 02:45:41;;;;;;;1.40;1.17;;;2.90;98.00;;;;;;5054606;28;20469;-67
2023/03/11 02:48:10;;;;;;;1.53;1.10;;;2.90;98.00;;;;;;5054403;28;20484;-67
2023/03/11 02:50:38;;;;;;;1.50;1.20;;;2.90;98.00;;;;;;5053760;28;20454;-67
2023/03/11 02:53:06;;;;;;;1.97;1.27;;;2.90;98.00;;;;;;5054062;28;20490;-67
2023/03/11 02:55:33;;;;;;;1.20;1.10;;;2.90;98.00;;;;;;5053984;28;20454;-67
2023/03/11 02:58:00;;;;;;;1.20;1.10;;;2.90;98.00;;;;;;5053235;28;20872;-67
2023/03/11 03:00:31;;;;;;;1.20;1.00;;;2.80;98.00;;;;;;5054396;28;20956;-67
2023/03/11 03:02:58;;;;;;;2.80;1.60;;;2.70;98.00;;;;;;5054147;28;20454;-67
2023/03/11 03:05:25;;;;;;;2.33;1.20;;;2.70;98.00;;;;;;5053988;28;20511;-67
2023/03/11 03:07:52;;;;;;;1.40;1.40;;;2.80;98.00;;;;;;5054145;28;20800;-67
2023/03/11 03:10:21;;;;;;;1.33;1.30;;;2.80;98.00;;;;;;5035904;28;20588;-67
2023/03/11 03:12:51;;;;;;;2.27;1.50;;;2.70;98.00;;;;;;5053950;28;20476;-67
2023/03/11 03:15:18;;;;;;;1.50;1.40;;;2.60;98.00;;;;;;5053865;28;21090;-67
2023/03/11 03:17:47;;;;;;;1.27;1.23;;;2.60;98.00;;;;;;5053929;28;20586;-67
2023/03/11 03:20:14;;;;;;;2.27;1.50;;;2.60;98.00;;;;;;5053923;28;20515;-67
2023/03/11 03:22:42;;;;;;;1.30;1.30;;;2.60;98.00;;;;;;5035873;28;20983;-67
2023/03/11 03:25:10;;;;;;;2.23;1.23;;;2.60;98.00;;;;;;5036318;28;20489;-67
2023/03/11 03:27:38;;;;;;;1.30;1.13;;;2.50;98.00;;;;;;5053606;28;20994;-67
2023/03/11 03:30:08;;;;;;;1.30;1.20;;;2.50;98.00;;;;;;5054045;28;20882;-67
2023/03/11 03:32:35;;;;;;;1.47;1.37;;;2.50;98.00;;;;;;5053234;28;20481;-67
2023/03/11 03:35:09;;;;;;;1.20;1.03;;;2.40;98.00;;;;;;5053624;28;20508;-67
2023/03/11 03:37:38;;;;;;;1.63;1.20;;;2.50;98.00;;;;;;5053538;28;20456;-67
2023/03/11 03:40:07;;;;;;;1.53;1.43;;;2.50;98.00;;;;;;5053624;28;21010;-67
2023/03/11 03:42:35;;;;;;;1.20;1.10;;;2.50;98.00;;;;;;5053068;28;20458;-67
2023/03/11 03:45:04;;;;;;;1.10;1.00;;;2.30;98.00;;;;;;5053349;28;20497;-67
2023/03/11 03:47:32;;;;;;;1.10;1.10;;;2.10;98.00;;;;;;5053403;28;20461;-67
2023/03/11 03:49:59;;;;;;;1.10;1.10;;;2.10;98.00;;;;;;5053471;28;20465;-67
2023/03/11 03:52:28;;;;;;;1.20;1.07;;;2.20;98.00;;;;;;5035980;28;20454;-67
2023/03/11 03:54:55;;;;;;;2.90;2.13;;;2.20;98.00;;;;;;5053537;28;20576;-67
2023/03/11 03:57:22;;;;;;;1.13;1.00;;;2.10;98.00;;;;;;5053435;28;20458;-67
2023/03/11 03:59:49;;;;;;;1.50;1.20;;;2.20;98.00;;;;;;5052981;28;20484;-67
2023/03/11 04:02:16;;;;;;;1.20;1.20;;;2.30;98.00;;;;;;5053180;28;20869;-67
2023/03/11 04:04:43;;;;;;;1.43;1.37;;;2.20;98.00;;;;;;5052878;28;20461;-67
2023/03/11 04:07:10;;;;;;;1.10;1.10;;;2.20;98.00;;;;;;5053133;28;20830;-67
2023/03/11 04:09:41;;;;;;;1.43;1.10;;;2.20;98.00;;;;;;5052920;28;20454;-67
2023/03/11 04:12:13;;;;;;;1.33;1.20;;;2.10;98.00;;;;;;5052467;28;20967;-67
2023/03/11 04:14:41;;;;;;;4.20;1.30;;;2.10;98.00;;;;;;5052784;28;21039;-67
2023/03/11 04:17:10;;;;;;;1.20;1.13;;;2.00;98.00;;;;;;5034974;28;20457;-67
2023/03/11 04:19:37;;;;;;;1.20;1.00;;;2.00;98.00;;;;;;5035120;28;20461;-67
2023/03/11 04:22:04;;;;;;;1.20;1.20;;;2.00;98.00;;;;;;5053043;28;20817;-67
2023/03/11 04:24:31;;;;;;;1.17;1.10;;;2.00;98.00;;;;;;5052683;28;20458;-67
2023/03/11 04:27:01;;;;;;;1.63;1.40;;;2.00;98.00;;;;;;5052386;28;20877;-67
2023/03/11 04:29:28;;;;;;;1.33;1.27;;;2.00;98.00;;;;;;5035492;28;20530;-67
2023/03/11 04:31:57;;;;;;;1.20;1.13;;;2.10;98.00;;;;;;5052555;28;20468;-67
2023/03/11 04:34:24;;;;;;;1.10;0.90;;;2.00;98.00;;;;;;5052408;28;20477;-67
2023/03/11 04:36:53;;;;;;;1.20;1.10;;;2.00;98.00;;;;;;5052522;28;20458;-67
2023/03/11 04:39:20;;;;;;;2.43;1.50;;;1.90;98.00;;;;;;5052505;28;20481;-67
2023/03/11 04:41:47;;;;;;;4.20;1.10;;;1.80;98.00;;;;;;5034921;28;20457;-67
2023/03/11 04:44:16;;;;;;;1.20;1.10;;;1.80;98.00;;;;;;5052610;28;20936;-67
2023/03/11 04:46:43;;;;;;;1.20;1.13;;;1.90;98.00;;;;;;5052338;28;20462;-67
2023/03/11 04:49:12;;;;;;;1.70;1.27;;;1.90;98.00;;;;;;5052568;28;20457;-67
2023/03/11 04:51:40;;;;;;;1.20;1.07;;;1.90;98.00;;;;;;5051849;28;20475;-67
2023/03/11 04:54:07;;;;;;;1.40;1.20;;;1.80;98.00;;;;;;5052117;28;20478;-67
2023/03/11 04:56:34;;;;;;;1.20;1.10;;;1.70;98.00;;;;;;5051227;28;20461;-67
2023/03/11 04:59:01;;;;;;;1.10;1.07;;;1.70;98.00;;;;;;5052498;28;20928;-67
2023/03/11 05:01:30;;;;;;;2.70;1.87;;;1.70;98.00;;;;;;5051944;28;20956;-67
2023/03/11 05:03:57;;;;;;;1.10;1.10;;;1.60;98.00;;;;;;5051891;28;20458;-67
2023/03/11 05:06:26;;;;;;;1.30;1.30;;;1.70;98.00;;;;;;5051884;28;20462;-67
2023/03/11 05:08:54;;;;;;;1.10;1.00;;;1.70;98.00;;;;;;5052181;28;20465;-67
2023/03/11 05:11:22;;;;;;;1.20;1.10;;;1.70;98.00;;;;;;5051956;28;20462;-67
2023/03/11 05:13:49;;;;;;;1.23;1.10;;;1.80;98.00;;;;;;5051701;28;20539;-67
2023/03/11 05:16:17;;;;;;;1.30;1.20;;;1.70;98.00;;;;;;5051828;28;20465;-67
2023/03/11 05:18:46;;;;;;;1.20;1.10;;;1.60;98.00;;;;;;5051729;28;20461;-67
2023/03/11 05:21:13;;;;;;;1.43;1.30;;;1.60;98.00;;;;;;5051674;28;20467;-67
2023/03/11 05:23:40;;;;;;;1.83;1.43;;;1.60;98.00;;;;;;5051630;28;20947;-67
2023/03/11 05:26:07;;;;;;;1.30;1.23;;;1.60;98.00;;;;;;5051787;28;20453;-67
2023/03/11 05:28:34;;;;;;;1.10;1.00;;;1.70;98.00;;;;;;5051785;28;20454;-67
2023/03/11 05:31:02;;;;;;;1.20;1.00;;;1.50;98.00;;;;;;5051970;28;20503;-66
2023/03/11 05:33:33;;;;;;;1.10;0.97;;;1.60;98.00;;;;;;5051425;28;20461;-66
2023/03/11 05:36:07;;;;;;;1.13;1.10;;;1.60;98.00;;;;;;5051708;28;20462;-67
2023/03/11 05:38:34;;;;;;;1.20;1.13;;;1.60;98.00;;;;;;5051778;28;20465;-67
2023/03/11 05:41:01;;;;;;;1.40;1.27;;;1.70;98.00;;;;;;5051569;28;20465;-67
2023/03/11 05:43:28;;;;;;;1.13;1.07;;;1.70;98.00;;;;;;5052089;28;20450;-67
2023/03/11 05:45:55;;;;;;;1.40;1.10;;;1.60;98.00;;;;;;5051617;28;20522;-67
2023/03/11 05:48:23;;;;;;;8.13;1.27;;;1.50;98.00;;;;;;5052060;28;20866;-67
2023/03/11 05:50:50;;;;;;;1.30;1.00;;;1.60;98.00;;;;;;5051655;28;20480;-66
2023/03/11 05:53:18;;;;;;;1.23;1.20;;;1.60;98.00;;;;;;5051958;28;20449;-67
2023/03/11 05:55:45;;;;;;;1.30;1.10;;;1.60;98.00;;;;;;5051119;28;21007;-66
2023/03/11 05:58:12;;;;;;;1.10;1.00;;;1.40;98.00;;;;;;5051661;28;20865;-67
2023/03/11 06:00:39;;;;;;;1.10;1.07;;;1.40;98.00;;;;;;5051030;28;20453;-67
2023/03/11 06:03:07;;;;;;;1.20;1.10;;;1.40;98.00;;;;;;5051627;28;20476;-67
2023/03/11 06:05:33;;;;;;;1.20;1.10;;;1.30;98.00;;;;;;5051330;28;20469;-67
2023/03/11 06:08:01;;;;;;;3.13;1.47;;;1.30;98.00;;;;;;5055010;28;20450;-67
2023/03/11 06:10:30;;;;;;;1.20;1.10;;;1.40;98.00;;;;;;5037597;28;20629;-67
2023/03/11 06:12:57;;;;;;;1.20;1.10;;;1.50;98.00;;;;;;5055197;28;20468;-67
2023/03/11 06:15:24;;;;;;;1.20;1.20;;;1.40;98.00;;;;;;5037558;28;20489;-67
2023/03/11 06:17:52;;;;;;;1.23;1.07;;;1.40;98.00;;;;;;5054981;28;20465;-67
2023/03/11 06:20:20;;;;;;;1.30;1.20;;;1.40;98.00;;;;;;5055142;28;20466;-67
2023/03/11 06:22:48;;;;;;;2.53;1.50;;;1.50;98.00;;;;;;5054867;28;20454;-67
2023/03/11 06:25:16;;;;;;;1.10;1.00;;;1.60;98.00;;;;;;5055193;28;20454;-67
2023/03/11 06:27:49;;;;;;;2.80;1.50;;;1.60;98.00;;;;;;5054976;28;20503;-67
2023/03/11 06:30:16;;;;;;;9.10;1.70;;;1.50;98.00;;;;;;5054781;28;20457;-67
2023/03/11 06:32:44;;;;;;;1.10;1.00;;;1.50;98.00;;;;;;5054522;28;20458;-67
2023/03/11 06:35:11;;;;;;;1.20;1.20;;;1.50;98.00;;;;;;5054769;28;20568;-67
2023/03/11 06:37:39;;;;;;;1.10;1.07;;;1.70;98.00;;;;;;5054624;28;20457;-67
2023/03/11 06:40:08;;;;;;;1.30;1.10;;;1.80;98.00;;;;;;5054954;28;20489;-67
2023/03/11 06:42:35;;;;;;;1.10;1.00;;;1.90;98.00;;;;;;5054687;28;20449;-67
2023/03/11 06:45:05;;;;;;;1.37;1.33;;;2.10;98.00;;;;;;5054659;28;20457;-67
2023/03/11 06:47:33;;;;;;;2.67;1.50;;;2.10;98.00;;;;;;5054606;28;20458;-67
2023/03/11 06:50:04;;;;;;;1.50;1.40;;;2.10;98.00;;;;;;5036924;28;20468;-67
2023/03/11 06:52:32;;;;;;;2.80;1.43;;;2.20;98.00;;;;;;5054478;28;20982;-67
2023/03/11 06:54:59;;;;;;;1.83;1.70;;;2.20;98.00;;;;;;5054294;28;20486;-67
2023/03/11 06:57:28;;;;;;;1.30;1.20;;;2.20;98.00;;;;;;5054326;28;20515;-67
2023/03/11 06:59:56;;;;;;;1.10;1.10;;;2.30;98.00;;;;;;5053911;28;20453;-67
2023/03/11 07:02:24;;;;;;;2.67;1.30;;;2.30;98.00;;;;;;5054142;28;20849;-63
2023/03/11 07:04:52;;;;;;;1.30;1.20;;;2.30;98.00;;;;;;5054073;28;20511;-63
2023/03/11 07:07:20;;;;;;;1.70;1.63;;;2.50;98.00;;;;;;5054108;28;20453;-63
2023/03/11 07:09:47;;;;;;;1.10;1.00;;;2.60;98.00;;;;;;5054175;28;20489;-63
2023/03/11 07:12:15;;;;;;;1.50;1.37;;;2.50;98.00;;;;;;5019702;28;20504;-63
2023/03/11 07:14:42;;;;;;;1.70;1.30;;;2.50;98.00;;;;;;5053979;28;20489;-63
2023/03/11 07:17:09;;;;;;;1.93;1.30;;;2.30;98.00;;;;;;5053508;28;20465;-63
2023/03/11 07:19:37;;;;;;;1.50;1.30;;;2.50;98.00;;;;;;5053275;28;20516;-64
2023/03/11 07:22:04;;;;;;;1.20;1.10;;;2.70;98.00;;;;;;5054054;28;20454;-64
2023/03/11 07:24:31;;;;;;;1.20;1.17;;;2.70;98.00;;;;;;5053738;28;20462;-62
2023/03/11 07:27:01;;;;;;;1.80;1.43;;;2.60;98.00;;;;;;5053898;28;20527;-63
2023/03/11 07:29:28;;;;;;;5.67;1.50;;;2.60;98.00;;;;;;5053917;28;20458;-63
2023/03/11 07:31:56;;;;;;;1.40;1.30;;;2.60;98.00;;;;;;5054009;28;20511;-63
2023/03/11 07:34:23;;;;;;;2.03;1.50;;;2.70;98.00;;;;;;5054032;28;20539;-63
2023/03/11 07:36:58;;;;;;;1.30;1.20;;;2.60;98.00;;;;;;5054330;28;20461;-63
2023/03/11 07:39:25;;;;;;;1.40;1.10;;;2.60;98.00;;;;;;5054035;28;20460;-63
2023/03/11 07:41:52;;;;;;;1.40;1.13;;;2.60;98.00;;;;;;5053727;28;20466;-63
2023/03/11 07:44:19;;;;;;;1.20;1.10;;;2.60;98.00;;;;;;5035803;28;20511;-63
2023/03/11 07:46:46;;;;;;;2.70;1.50;;;2.60;98.00;;;;;;5053225;28;20456;-63
2023/03/11 07:49:14;;;;;;;1.80;1.43;;;2.50;98.00;;;;;;5053311;28;20511;-63
2023/03/11 07:51:42;;;;;;;1.20;1.10;;;2.40;98.00;;;;;;5053122;28;20461;-63
2023/03/11 07:54:13;;;;;;;1.10;1.00;;;2.40;98.00;;;;;;5053179;28;20560;-63
2023/03/11 07:56:40;;;;;;;1.10;1.00;;;2.40;98.00;;;;;;5052892;28;20450;-62
2023/03/11 07:59:07;;;;;;;1.10;1.10;;;2.40;98.00;;;;;;5052790;28;20454;-63
2023/03/11 08:01:39;;;;;;;1.40;1.30;;;2.50;98.00;;;;;;5052358;28;20465;-63
2023/03/11 08:04:09;;;;;;;1.60;1.57;;;2.60;98.00;;;;;;5052450;28;20839;-63
2023/03/11 08:06:37;;;;;;;1.70;1.27;;;2.80;98.00;;;;;;5052903;28;20458;-63
2023/03/11 08:09:06;;;;;;;2.67;1.37;;;3.00;98.00;;;;;;5035165;28;20464;-63
2023/03/11 08:11:37;;;;;;;1.50;1.10;;;3.00;98.00;;;;;;5052977;28;20461;-63
2023/03/11 08:14:05;;;;;;;1.30;1.20;;;3.10;98.00;;;;;;5035660;28;20461;-63
2023/03/11 08:16:32;;;;;;;1.53;1.47;;;3.20;98.00;;;;;;5052912;28;20492;-63
2023/03/11 08:18:59;;;;;;;3.03;1.40;;;3.20;98.00;;;;;;5053118;28;20468;-63
2023/03/11 08:21:30;;;;;;;7.73;1.73;;;3.20;98.00;;;;;;5052603;28;20464;-63
2023/03/11 08:23:59;;;;;;;2.43;1.33;;;3.20;98.00;;;;;;5052718;28;20464;-63
2023/03/11 08:26:27;;;;;;;1.53;1.53;;;3.30;98.00;;;;;;5052553;28;20958;-62
2023/03/11 08:28:59;;;;;;;1.70;1.20;;;3.20;98.00;;;;;;5034775;28;20529;-63
2023/03/11 08:31:30;;;;;;;1.20;1.10;;;3.30;98.00;;;;;;5052611;28;20944;-63
2023/03/11 08:34:00;;;;;;;1.57;1.17;;;3.30;98.00;;;;;;5052445;28;20796;-63
2023/03/11 08:36:27;;;;;;;1.50;1.13;;;3.30;98.00;;;;;;5052110;28;20559;-62
2023/03/11 08:38:54;;;;;;;1.47;1.10;;;3.20;98.00;;;;;;5052411;28;20453;-63
2023/03/11 08:41:21;;;;;;;1.70;1.30;;;3.40;98.00;;;;;;5052544;28;20485;-63
2023/03/11 08:43:51;;;;;;;1.40;1.30;;;3.60;98.00;;;;;;5052340;28;20458;-63
2023/03/11 08:46:23;;;;;;;5.13;1.40;;;3.80;98.00;;;;;;5052247;28;20466;-63
2023/03/11 08:48:50;;;;;;;1.10;1.00;;;3.80;98.00;;;;;;5050421;28;20864;-63
2023/03/11 08:51:18;;;;;;;1.33;1.30;;;3.80;98.00;;;;;;5052104;28;20455;-63
2023/03/11 08:53:46;;;;;;;1.40;1.30;;;4.00;98.00;;;;;;5047216;28;20848;-63
2023/03/11 08:56:14;;;;;;;2.27;1.53;;;4.20;98.00;;;;;;5030921;28;21005;-64
2023/03/11 08:58:41;;;;;;;1.30;1.20;;;4.20;98.00;;;;;;5032116;28;20517;-63
2023/03/11 09:01:34;;;;;;;1.30;1.10;;;4.20;98.00;;;;;;5031843;28;20468;-63
2023/03/11 09:04:03;;;;;;;1.20;1.10;;;4.30;98.00;;;;;;5032218;28;20812;-63
2023/03/11 09:06:30;;;;;;;1.23;1.20;;;4.40;98.00;;;;;;5032125;28;20455;-63
2023/03/11 09:08:57;;;;;;;1.10;0.90;;;4.30;98.00;;;;;;5032375;28;20883;-63
2023/03/11 09:11:24;;;;;;;1.20;1.20;;;4.20;98.00;;;;;;5031940;28;20460;-63
2023/03/11 09:13:52;;;;;;;1.60;1.20;;;3.90;98.00;;;;;;5032014;28;20459;-64
2023/03/11 09:16:21;;;;;;;2.37;1.40;;;4.20;98.00;;;;;;5031733;28;20492;-63
2023/03/11 09:18:48;;;;;;;1.10;1.10;;;4.40;98.00;;;;;;5031712;28;20517;-63
2023/03/11 09:21:17;;;;;;;2.07;1.40;;;4.60;98.00;;;;;;5032034;28;21095;-63
2023/03/11 09:23:46;;;;;;;1.30;1.10;;;4.60;98.00;;;;;;5031737;28;20461;-63
2023/03/11 09:26:13;;;;;;;1.20;1.20;;;4.70;98.00;;;;;;5030792;28;20466;-63
2023/03/11 09:28:41;;;;;;;1.30;1.00;;;4.90;98.00;;;;;;5031855;28;20463;-63
2023/03/11 09:31:08;;;;;;;1.30;1.20;;;5.10;98.00;;;;;;5031678;28;20456;-63
2023/03/11 09:33:38;;;;;;;1.40;1.40;;;5.40;98.00;;;;;;5031631;28;20461;-64
2023/03/11 09:36:06;;;;;;;1.13;1.03;;;5.60;98.00;;;;;;5031581;28;21029;-63
2023/03/11 09:38:34;;;;;;;1.20;1.20;;;5.90;98.00;;;;;;5031947;28;20466;-63
2023/03/11 09:41:05;;;;;;;2.30;1.30;;;6.00;98.00;;;;;;5032390;28;20457;-64
2023/03/11 09:43:53;;;;;;;1.63;1.40;;;5.90;98.00;;;;;;5035913;28;20468;-63
2023/03/11 09:46:37;;;;;;;1.40;1.10;;;5.60;98.00;;;;;;5036085;28;20471;-63
2023/03/11 09:49:15;;;;;;;1.10;1.00;;;5.40;98.00;;;;;;5035911;28;20460;-64
2023/03/11 09:51:46;;;;;;;1.83;1.20;;;5.30;98.00;;;;;;5035394;28;20517;-63
2023/03/11 09:54:15;;;;;;;1.20;1.20;;;5.20;98.00;;;;;;5035396;28;20866;-64
2023/03/11 09:56:43;;;;;;;1.67;1.20;;;5.30;98.00;;;;;;5035223;28;20493;-63
2023/03/11 09:59:19;;;;;;;1.10;1.00;;;5.40;98.00;;;;;;5035435;28;20464;-63
2023/03/11 10:01:49;;;;;;;20.10;2.17;;;5.60;98.00;;;;;;5035328;28;20495;-63
2023/03/11 10:04:21;;;;;;;1.60;1.20;;;5.80;98.00;;;;;;5035006;28;20833;-64
2023/03/11 10:06:48;;;;;;;1.50;1.20;;;6.00;98.00;;;;;;5034630;28;20466;-63
2023/03/11 10:09:30;;;;;;;1.20;1.03;;;6.00;98.00;;;;;;5034708;28;20450;-63
2023/03/11 10:12:10;;;;;;;1.30;1.10;;;6.00;98.00;;;;;;5034672;28;20461;-63
2023/03/11 10:14:55;;;;;;;1.30;1.10;;;5.70;98.00;;;;;;5034415;28;20452;-63
2023/03/11 10:17:46;;;;;;;1.33;1.20;;;5.70;98.00;;;;;;5034499;28;20508;-63
2023/03/11 10:20:20;;;;;;;4.03;1.50;;;5.50;98.00;;;;;;5034393;28;20943;-63
2023/03/11 10:23:01;;;;;;;1.83;1.73;;;5.90;98.00;;;;;;5034109;28;20544;-63
2023/03/11 10:25:41;;;;;;;1.30;1.10;;;6.10;97.60;;;;;;5034057;28;20455;-63
2023/03/11 10:28:12;;;;;;;1.50;1.20;;;6.20;96.20;;;;;;5034203;28;20463;-63
2023/03/11 10:30:43;;;;;;;1.23;1.20;;;6.30;97.00;;;;;;5034191;28;20527;-63
2023/03/11 10:33:21;;;;;;;1.20;1.10;;;6.10;96.70;;;;;;5047549;28;20534;-66
2023/03/11 10:35:53;;;;;;;1.20;1.00;;;6.30;98.00;;;;;;5050800;28;20485;-64
2023/03/11 10:38:22;;;;;;;1.50;1.40;;;7.00;98.00;;;;;;5053413;28;20806;-65
2023/03/11 10:40:54;;;;;;;8.70;1.67;;;7.10;98.00;;;;;;5053626;28;20455;-65
2023/03/11 10:43:29;;;;;;;1.30;1.20;;;6.90;98.00;;;;;;5053477;28;20482;-65
2023/03/11 10:45:56;;;;;;;1.40;1.33;;;6.70;98.00;;;;;;5053804;28;20468;-64
2023/03/11 10:48:25;;;;;;;1.50;1.30;;;6.50;98.00;;;;;;5036359;28;20454;-65
2023/03/11 10:51:01;;;;;;;3.07;1.30;;;6.30;98.00;;;;;;5053664;28;20453;-66
2023/03/11 10:53:28;;;;;;;1.30;1.27;;;6.30;98.00;;;;;;5053220;28;20813;-66
2023/03/11 10:56:01;;;;;;;1.50;1.40;;;6.20;98.00;;;;;;5035337;28;20514;-66
2023/03/11 10:58:29;;;;;;;1.30;1.20;;;6.00;98.00;;;;;;5053757;28;20530;-67
2023/03/11 11:01:07;;;;;;;1.53;1.40;;;5.80;98.00;;;;;;5053903;28;20967;-65
2023/03/11 11:03:35;;;;;;;1.40;1.10;;;5.70;98.00;;;;;;4996515;28;20459;-66
2023/03/11 11:06:04;;;;;;;2.60;1.50;;;5.50;98.00;;;;;;5009527;28;20575;-66
2023/03/11 11:08:31;;;;;;;1.57;1.20;;;5.50;98.00;;;;;;5053865;28;20462;-64
2023/03/11 11:11:01;;;;;;;1.10;1.00;;;5.50;98.00;;;;;;5052963;28;20444;-66
2023/03/11 11:13:31;;;;;;;1.30;1.20;;;5.50;98.00;;;;;;5052725;28;20571;-66
2023/03/11 11:16:00;;;;;;;7.43;1.60;;;5.70;98.00;;;;;;5052927;28;20561;-65
2023/03/11 11:18:31;;;;;;;1.47;1.40;;;6.10;97.20;;;;;;5052448;28;20465;-66
2023/03/11 11:21:05;;;;;;;1.20;1.20;;;6.40;96.70;;;;;;5052728;28;21025;-66
2023/03/11 11:23:37;;;;;;;1.40;1.20;;;6.60;96.30;;;;;;5053074;28;20457;-65
2023/03/11 11:26:08;;;;;;;1.77;1.30;;;6.50;96.10;;;;;;5053169;28;20456;-65
2023/03/11 11:28:36;;;;;;;1.53;1.20;;;6.90;98.00;;;;;;5053068;28;20840;-65
2023/03/11 11:31:18;;;;;;;1.70;1.23;;;6.90;96.10;;;;;;5053089;28;20462;-66
2023/03/11 11:33:51;;;;;;;2.60;1.50;;;7.00;95.30;;;;;;5052783;28;20477;-66
2023/03/11 11:36:19;;;;;;;1.37;1.30;;;6.80;93.10;;;;;;5052930;28;20497;-65
2023/03/11 11:38:46;;;;;;;1.20;1.10;;;6.60;94.40;;;;;;5052625;28;20466;-65
2023/03/11 11:41:18;;;;;;;2.40;1.50;;;6.50;94.70;;;;;;5053204;28;20454;-66
2023/03/11 11:43:50;;;;;;;1.40;1.30;;;6.50;95.80;;;;;;5052752;28;20475;-65
2023/03/11 11:46:25;;;;;;;1.40;1.10;;;6.90;93.60;;;;;;5052777;28;20461;-65
2023/03/11 11:49:03;;;;;;;2.80;1.43;;;7.00;93.00;;;;;;5052604;28;20462;-65
2023/03/11 11:51:34;;;;;;;1.90;1.37;;;7.30;91.50;;;;;;5052641;28;20930;-65
2023/03/11 11:54:10;;;;;;;1.93;1.30;;;7.90;91.60;;;;;;5052699;28;20514;-65
2023/03/11 11:56:39;;;;;;;1.20;1.10;;;7.90;91.60;;;;;;5052250;28;20485;-66
2023/03/11 11:59:13;;;;;;;1.50;1.10;;;7.50;90.00;;;;;;5052440;28;20508;-65
2023/03/11 12:01:49;;;;;;;1.20;1.10;;;7.40;90.90;;;;;;5052234;28;20982;-66
2023/03/11 12:04:48;;;;;;;1.30;1.30;;;7.30;91.00;;;;;;5051815;28;20453;-65
2023/03/11 12:07:29;;;;;;;1.40;1.10;;;7.00;91.10;;;;;;5052128;28;20458;-65
2023/03/11 12:10:05;;;;;;;1.23;1.20;;;7.00;94.10;;;;;;5051705;28;20449;-65
2023/03/11 12:12:41;;;;;;;7.27;1.53;;;7.20;92.70;;;;;;5052043;28;20506;-66
2023/03/11 12:15:14;;;;;;;1.30;1.00;;;7.80;90.90;;;;;;5052269;28;20989;-65
2023/03/11 12:17:45;;;;;;;1.77;1.30;;;8.70;89.70;;;;;;5047501;28;20494;-65
2023/03/11 12:20:19;;;;;;;1.30;1.10;;;9.50;87.30;;;;;;5052032;28;20519;-65
2023/03/11 12:23:04;;;;;;;1.77;1.20;;;10.20;88.00;;;;;;5051760;28;20456;-65
2023/03/11 12:25:39;;;;;;;1.23;1.20;;;10.80;83.50;;;;;;5051579;28;20461;-65
2023/03/11 12:28:19;;;;;;;5.53;1.60;;;11.30;84.20;;;;;;5052515;28;20453;-65
2023/03/11 12:30:49;;;;;;;2.20;1.37;;;11.30;81.30;;;;;;5052786;28;20461;-64
2023/03/11 12:33:19;;;;;;;1.30;1.20;;;11.80;82.60;;;;;;5052532;28;20470;-65
2023/03/11 12:35:54;;;;;;;1.50;1.23;;;11.60;77.80;;;;;;5035235;28;20468;-64
2023/03/11 12:38:31;;;;;;;3.63;1.70;;;11.10;79.80;;;;;;5052582;28;20455;-64
2023/03/11 12:41:02;;;;;;;1.87;1.40;;;11.30;82.60;;;;;;5052799;28;20469;-64
2023/03/11 12:43:59;;;;;;;1.40;1.30;;;11.70;79.50;;;;;;5052518;28;20491;-64
2023/03/11 12:47:01;;;;;;;2.30;1.60;;;12.00;79.90;;;;;;5052166;28;20512;-64
2023/03/11 12:49:30;;;;;;;1.57;1.30;;;11.10;80.80;;;;;;5052293;28;20464;-64
2023/03/11 12:52:19;;;;;;;1.30;1.20;;;10.60;82.20;;;;;;5052038;28;20493;-66
2023/03/11 12:54:47;;;;;;;2.40;1.50;;;9.90;82.50;;;;;;5052051;28;20463;-64
2023/03/11 12:57:31;;;;;;;1.53;1.20;;;9.80;83.20;;;;;;5051785;28;20484;-64
2023/03/11 13:00:34;;;;;;;2.00;1.30;;;10.00;85.10;;;;;;5051953;28;20491;-65
2023/03/11 13:03:22;;;;;;;1.30;1.30;;;10.00;83.70;;;;;;5033191;28;20504;-66
2023/03/11 13:05:57;;;;;;;1.50;1.40;;;9.90;83.10;;;;;;5051910;28;20456;-64
2023/03/11 13:08:27;;;;;;;1.90;1.23;;;9.60;85.60;;;;;;5052068;28;20557;-62
2023/03/11 13:10:55;;;;;;;1.60;1.30;;;9.50;85.50;;;;;;5052180;28;20461;-63
2023/03/11 13:13:43;;;;;;;2.20;1.27;;;9.40;86.10;;;;;;5051816;28;20797;-65